createdAt,value
2022-09-11T00:01:49.309Z,15.20
2022-09-11T00:04:18.418Z,15.00
2022-09-11T00:06:47.054Z,15.00
2022-09-11T00:09:15.939Z,14.90
2022-09-11T00:11:45.027Z,14.90
2022-09-11T00:14:15.819Z,14.90
2022-09-11T00:16:47.679Z,15.00
2022-09-11T00:19:19.052Z,14.90
2022-09-11T00:21:50.604Z,14.90
2022-09-11T00:24:19.509Z,14.90
2022-09-11T00:26:48.504Z,14.90
2022-09-11T00:29:17.011Z,14.80
2022-09-11T00:31:49.308Z,14.80
2022-09-11T00:34:18.113Z,14.80
2022-09-11T00:36:46.716Z,14.80
2022-09-11T00:39:15.549Z,15.00
2022-09-11T00:41:46.825Z,14.80
2022-09-11T00:44:54.126Z,14.70
2022-09-11T00:47:24.534Z,14.50
2022-09-11T00:49:57.366Z,14.40
2022-09-11T00:52:30.357Z,14.30
2022-09-11T00:55:02.696Z,14.30
2022-09-11T00:57:36.740Z,14.30
2022-09-11T01:00:08.299Z,14.40
2022-09-11T01:02:40.230Z,14.50
2022-09-11T01:05:09.827Z,14.60
2022-09-11T01:07:38.752Z,14.70
2022-09-11T01:10:09.217Z,14.80
2022-09-11T01:12:45.528Z,14.70
2022-09-11T01:15:21.252Z,14.60
2022-09-11T01:18:01.469Z,14.60
2022-09-11T01:20:43.617Z,14.70
2022-09-11T01:23:34.332Z,14.80
2022-09-11T01:26:41.937Z,14.70
2022-09-11T01:29:19.317Z,14.70
2022-09-11T01:31:58.362Z,14.70
2022-09-11T01:34:35.761Z,14.80
2022-09-11T01:37:08.214Z,15.00
2022-09-11T01:39:41.721Z,15.10
2022-09-11T01:42:17.359Z,15.20
2022-09-11T01:44:52.528Z,15.20
2022-09-11T01:47:22.375Z,15.20
2022-09-11T01:49:58.572Z,15.30
2022-09-11T01:52:34.620Z,15.30
2022-09-11T01:55:06.794Z,15.30
2022-09-11T01:57:42.251Z,15.30
2022-09-11T02:00:15.524Z,15.30
2022-09-11T02:02:47.084Z,15.30
2022-09-11T02:05:19.800Z,15.40
2022-09-11T02:07:58.465Z,15.30
2022-09-11T02:10:34.998Z,15.30
2022-09-11T02:13:12.848Z,15.10
2022-09-11T02:15:48.438Z,15.20
2022-09-11T02:18:21.628Z,15.50
2022-09-11T02:20:51.430Z,15.40
2022-09-11T02:23:20.457Z,15.30
2022-09-11T02:25:49.407Z,15.40
2022-09-11T02:28:19.049Z,15.30
2022-09-11T02:30:49.859Z,15.20
2022-09-11T02:33:33.873Z,15.10
2022-09-11T02:36:23.636Z,15.00
2022-09-11T02:39:02.446Z,14.90
2022-09-11T02:41:35.957Z,14.90
2022-09-11T02:44:10.978Z,14.90
2022-09-11T02:46:56.876Z,15.00
2022-09-11T02:49:34.582Z,15.10
2022-09-11T02:52:12.869Z,15.10
2022-09-11T02:54:53.056Z,15.20
2022-09-11T02:57:30.176Z,15.20
2022-09-11T03:00:01.902Z,15.20
2022-09-11T03:02:37.594Z,15.20
2022-09-11T03:05:06.764Z,15.40
2022-09-11T03:07:35.330Z,15.50
2022-09-11T03:10:04.046Z,15.50
2022-09-11T03:12:32.686Z,15.50
2022-09-11T03:15:03.017Z,15.50
2022-09-11T03:17:38.023Z,15.50
2022-09-11T03:20:11.810Z,15.50
2022-09-11T03:22:42.461Z,15.50
2022-09-11T03:25:12.521Z,15.50
2022-09-11T03:27:42.238Z,15.50
2022-09-11T03:30:14.232Z,15.60
2022-09-11T03:32:44.463Z,15.70
2022-09-11T03:35:14.677Z,15.70
2022-09-11T03:37:43.267Z,15.80
2022-09-11T03:40:12.670Z,15.80
2022-09-11T03:42:41.125Z,15.70
2022-09-11T03:45:10.497Z,15.80
2022-09-11T03:47:40.749Z,15.90
2022-09-11T03:50:12.073Z,15.90
2022-09-11T03:52:40.933Z,15.80
2022-09-11T03:55:09.926Z,15.80
2022-09-11T03:57:39.188Z,15.90
2022-09-11T04:00:10.578Z,15.90
2022-09-11T04:02:56.326Z,15.90
2022-09-11T04:05:38.253Z,15.80
2022-09-11T04:08:09.346Z,15.90
2022-09-11T04:10:38.489Z,15.90
2022-09-11T04:13:07.142Z,15.90
2022-09-11T04:15:36.069Z,15.90
2022-09-11T04:18:07.507Z,15.90
2022-09-11T04:20:41.510Z,15.80
2022-09-11T04:23:10.152Z,15.80
2022-09-11T04:25:39.429Z,15.80
2022-09-11T04:28:08.767Z,15.80
2022-09-11T04:30:38.779Z,15.90
2022-09-11T04:33:10.685Z,15.80
2022-09-11T04:35:41.534Z,15.80
2022-09-11T04:38:10.318Z,15.80
2022-09-11T04:40:40.225Z,15.80
2022-09-11T04:43:09.581Z,15.80
2022-09-11T04:45:40.224Z,15.90
2022-09-11T04:48:09.278Z,15.80
2022-09-11T04:50:38.223Z,15.90
2022-09-11T04:53:17.253Z,15.90
2022-09-11T04:55:46.170Z,15.80
2022-09-11T04:58:16.402Z,15.80
2022-09-11T05:00:45.099Z,15.70
2022-09-11T05:03:13.657Z,15.80
2022-09-11T05:05:43.609Z,15.80
2022-09-11T05:08:12.192Z,15.80
2022-09-11T05:10:43.191Z,15.80
2022-09-11T05:13:12.363Z,15.70
2022-09-11T05:15:41.198Z,15.70
2022-09-11T05:18:09.814Z,15.80
2022-09-11T05:20:40.098Z,15.90
2022-09-11T05:23:09.076Z,15.90
2022-09-11T05:25:38.253Z,15.90
2022-09-11T05:28:08.571Z,15.80
2022-09-11T05:30:38.517Z,15.80
2022-09-11T05:33:07.792Z,15.80
2022-09-11T05:35:36.298Z,15.90
2022-09-11T05:38:04.943Z,15.90
2022-09-11T05:40:34.086Z,15.90
2022-09-11T05:43:02.887Z,15.90
2022-09-11T05:45:33.301Z,15.90
2022-09-11T05:48:03.544Z,15.90
2022-09-11T05:50:35.863Z,15.90
2022-09-11T05:53:07.635Z,15.90
2022-09-11T05:55:42.185Z,15.90
2022-09-11T05:58:11.445Z,15.90
2022-09-11T06:00:44.857Z,15.90
2022-09-11T06:03:15.465Z,15.90
2022-09-11T06:05:45.220Z,15.90
2022-09-11T06:08:14.124Z,15.90
2022-09-11T06:10:48.042Z,15.90
2022-09-11T06:13:18.230Z,15.90
2022-09-11T06:15:53.897Z,16.00
2022-09-11T06:18:22.594Z,16.10
2022-09-11T06:20:58.430Z,16.10
2022-09-11T06:23:30.289Z,16.10
2022-09-11T06:26:05.077Z,16.20
2022-09-11T06:28:37.791Z,16.20
2022-09-11T06:31:11.139Z,16.20
2022-09-11T06:33:42.396Z,16.30
2022-09-11T06:36:12.747Z,16.30
2022-09-11T06:38:41.791Z,16.30
2022-09-11T06:41:17.098Z,16.40
2022-09-11T06:43:46.805Z,16.30
2022-09-11T06:46:20.307Z,16.40
2022-09-11T06:48:50.934Z,16.50
2022-09-11T06:51:25.290Z,16.50
2022-09-11T06:53:57.945Z,16.50
2022-09-11T06:56:29.633Z,16.60
2022-09-11T06:58:58.303Z,16.70
2022-09-11T07:01:29.593Z,16.70
2022-09-11T07:04:03.233Z,16.70
2022-09-11T07:06:35.623Z,16.60
2022-09-11T07:09:04.528Z,16.60
2022-09-11T07:11:44.933Z,16.80
2022-09-11T07:14:13.945Z,16.80
2022-09-11T07:16:46.434Z,16.90
2022-09-11T07:19:18.428Z,17.00
2022-09-11T07:21:47.718Z,17.00
2022-09-11T07:24:18.930Z,17.00
2022-09-11T07:26:47.441Z,17.10
2022-09-11T07:29:22.529Z,17.20
2022-09-11T07:31:55.941Z,17.20
2022-09-11T07:34:24.938Z,17.20
2022-09-11T07:36:53.602Z,17.10
2022-09-11T07:39:25.851Z,17.00
2022-09-11T07:42:02.514Z,17.00
2022-09-11T07:44:34.318Z,17.00
2022-09-11T07:47:05.994Z,17.10
2022-09-11T07:49:42.511Z,17.20
2022-09-11T07:52:16.844Z,17.40
2022-09-11T07:54:52.384Z,17.50
2022-09-11T07:57:24.599Z,17.80
2022-09-11T07:59:53.923Z,18.00
2022-09-11T08:02:24.569Z,18.00
2022-09-11T08:04:53.958Z,18.00
2022-09-11T08:07:23.913Z,17.90
2022-09-11T08:10:04.604Z,17.60
2022-09-11T08:12:42.025Z,17.60
2022-09-11T08:15:11.467Z,17.50
2022-09-11T08:17:42.479Z,17.40
2022-09-11T08:20:12.049Z,17.60
2022-09-11T08:22:42.216Z,17.80
2022-09-11T08:25:11.495Z,17.80
2022-09-11T08:27:40.139Z,17.80
2022-09-11T08:30:13.256Z,17.80
2022-09-11T08:32:44.023Z,17.80
2022-09-11T08:35:13.395Z,17.70
2022-09-11T08:37:44.038Z,17.70
2022-09-11T08:40:13.917Z,17.80
2022-09-11T08:42:45.432Z,17.50
2022-09-11T08:45:17.901Z,17.40
2022-09-11T08:47:53.374Z,17.50
2022-09-11T08:50:26.174Z,17.70
2022-09-11T08:52:56.877Z,17.80
2022-09-11T08:55:35.059Z,17.90
2022-09-11T08:58:12.757Z,18.10
2022-09-11T09:00:48.737Z,18.30
2022-09-11T09:03:45.263Z,18.70
2022-09-11T09:06:29.836Z,18.80
2022-09-11T09:09:07.822Z,18.70
2022-09-11T09:11:43.814Z,18.20
2022-09-11T09:14:49.236Z,18.10
2022-09-11T09:17:22.546Z,17.90
2022-09-11T09:20:01.833Z,18.10
2022-09-11T09:22:40.985Z,18.20
2022-09-11T09:25:15.667Z,18.30
2022-09-11T09:27:49.127Z,18.40
2022-09-11T09:30:22.461Z,18.50
2022-09-11T09:32:55.154Z,18.80
2022-09-11T09:35:33.047Z,18.90
2022-09-11T09:38:03.261Z,18.90
2022-09-11T09:40:36.860Z,19.20
2022-09-11T09:43:29.111Z,19.50
2022-09-11T09:46:07.126Z,19.90
2022-09-11T09:48:40.113Z,20.50
2022-09-11T09:51:14.512Z,20.80
2022-09-11T09:53:47.223Z,21.00
2022-09-11T09:56:19.756Z,21.40
2022-09-11T09:58:57.154Z,21.70
2022-09-11T10:01:50.609Z,21.90
2022-09-11T10:04:24.470Z,21.60
2022-09-11T10:07:06.829Z,21.40
2022-09-11T10:09:36.203Z,21.40
2022-09-11T10:12:07.883Z,21.10
2022-09-11T10:14:52.774Z,20.80
2022-09-11T10:17:23.871Z,20.70
2022-09-11T10:19:57.184Z,21.00
2022-09-11T10:22:30.493Z,21.00
2022-09-11T10:25:13.714Z,21.30
2022-09-11T10:27:48.533Z,21.60
2022-09-11T10:30:30.114Z,21.90
2022-09-11T10:33:03.554Z,21.90
2022-09-11T10:35:35.857Z,21.70
2022-09-11T10:38:28.994Z,21.40
2022-09-11T10:41:09.629Z,21.30
2022-09-11T10:43:48.950Z,21.40
2022-09-11T10:46:40.468Z,21.60
2022-09-11T10:49:18.195Z,21.80
2022-09-11T10:52:01.381Z,21.70
2022-09-11T10:55:00.343Z,21.70
2022-09-11T10:57:33.812Z,21.70
2022-09-11T11:00:13.998Z,22.00
2022-09-11T11:02:45.979Z,22.00
2022-09-11T11:05:22.615Z,21.80
2022-09-11T11:08:35.517Z,21.30
2022-09-11T11:11:18.228Z,21.10
2022-09-11T11:14:13.743Z,20.90
2022-09-11T11:16:54.588Z,21.20
2022-09-11T11:19:51.938Z,21.20
2022-09-11T11:22:34.893Z,21.40
2022-09-11T11:25:13.095Z,21.30
2022-09-11T11:28:02.945Z,21.50
2022-09-11T11:30:35.455Z,21.80
2022-09-11T11:33:24.930Z,22.10
2022-09-11T11:36:03.015Z,22.50
2022-09-11T11:38:42.198Z,22.80
2022-09-11T11:41:20.558Z,24.10
2022-09-11T11:43:53.315Z,24.30
2022-09-11T11:46:26.889Z,24.00
2022-09-11T11:49:01.294Z,23.60
2022-09-11T11:51:39.771Z,24.50
2022-09-11T11:54:19.355Z,26.10
2022-09-11T11:56:51.987Z,26.80
2022-09-11T11:59:32.158Z,27.40
2022-09-11T12:02:05.608Z,28.40
2022-09-11T12:04:43.118Z,29.10
2022-09-11T12:07:17.981Z,29.50
2022-09-11T12:09:52.538Z,28.20
2022-09-11T12:12:24.878Z,27.40
2022-09-11T12:15:07.168Z,26.80
2022-09-11T12:17:38.507Z,25.80
2022-09-11T12:20:44.104Z,24.90
2022-09-11T12:23:36.149Z,24.90
2022-09-11T12:26:15.587Z,25.70
2022-09-11T12:28:45.476Z,26.00
2022-09-11T12:31:22.919Z,26.00
2022-09-11T12:33:59.461Z,25.70
2022-09-11T12:36:57.670Z,24.60
2022-09-11T12:39:36.929Z,24.30
2022-09-11T12:42:41.969Z,24.80
2022-09-11T12:45:35.393Z,25.90
2022-09-11T12:48:17.655Z,28.10
2022-09-11T12:51:08.660Z,28.40
2022-09-11T12:53:46.818Z,29.20
2022-09-11T12:56:31.192Z,29.80
2022-09-11T12:59:27.854Z,29.10
2022-09-11T13:02:08.656Z,30.10
2022-09-11T13:04:54.689Z,29.30
2022-09-11T13:07:41.645Z,29.80
2022-09-11T13:10:58.256Z,30.10
2022-09-11T13:13:47.895Z,30.70
2022-09-11T13:16:35.688Z,29.60
2022-09-11T13:19:20.419Z,29.40
2022-09-11T13:21:57.642Z,29.90
2022-09-11T13:24:29.447Z,28.60
2022-09-11T13:27:03.167Z,28.10
2022-09-11T13:29:48.615Z,28.80
2022-09-11T13:32:20.071Z,29.80
2022-09-11T13:35:05.585Z,29.70
2022-09-11T13:37:41.460Z,28.70
2022-09-11T13:40:25.982Z,28.00
2022-09-11T13:43:08.123Z,28.30
2022-09-11T13:45:40.345Z,28.70
2022-09-11T13:48:23.471Z,29.70
2022-09-11T13:51:05.268Z,30.20
2022-09-11T13:53:45.724Z,29.90
2022-09-11T13:59:42.233Z,31.20
2022-09-11T14:02:31.093Z,31.50
2022-09-11T14:05:13.824Z,31.10
2022-09-11T14:07:54.094Z,29.90
2022-09-11T14:10:30.487Z,28.90
2022-09-11T14:13:19.012Z,30.00
2022-09-11T14:15:56.424Z,30.60
2022-09-11T14:18:33.941Z,30.60
2022-09-11T14:21:17.109Z,32.00
2022-09-11T14:23:49.618Z,31.70
2022-09-11T14:26:23.327Z,30.50
2022-09-11T14:29:07.187Z,29.90
2022-09-11T14:31:40.945Z,30.40
2022-09-11T14:34:26.910Z,31.20
2022-09-11T14:37:00.144Z,31.60
2022-09-11T14:39:33.360Z,32.40
2022-09-11T14:42:06.071Z,31.00
2022-09-11T14:44:37.640Z,31.60
2022-09-11T14:47:07.061Z,31.60
2022-09-11T14:49:35.711Z,33.00
2022-09-11T14:52:05.068Z,33.60
2022-09-11T14:54:33.962Z,33.10
2022-09-11T14:57:04.617Z,33.00
2022-09-11T14:59:33.545Z,32.50
2022-09-11T15:02:02.405Z,33.70
2022-09-11T15:04:31.497Z,33.60
2022-09-11T15:07:01.041Z,31.90
2022-09-11T15:09:30.264Z,32.30
2022-09-11T15:11:59.486Z,32.30
2022-09-11T15:14:52.395Z,33.50
2022-09-11T15:17:20.632Z,34.20
2022-09-11T15:19:59.177Z,34.00
2022-09-11T15:22:47.888Z,32.30
2022-09-11T15:25:24.073Z,33.00
2022-09-11T15:27:57.684Z,33.40
2022-09-11T15:30:31.700Z,34.00
2022-09-11T15:33:47.090Z,34.80
2022-09-11T15:37:02.347Z,34.90
2022-09-11T15:39:25.865Z,34.70
2022-09-11T15:42:15.189Z,34.60
2022-09-11T15:45:15.298Z,32.70
2022-09-11T15:47:56.845Z,31.10
2022-09-11T15:51:00.971Z,30.50
2022-09-11T15:53:31.097Z,29.90
2022-09-11T15:56:31.460Z,29.70
2022-09-11T15:59:12.498Z,29.90
2022-09-11T16:01:55.941Z,31.20
2022-09-11T16:08:32.600Z,31.30
2022-09-11T16:11:14.873Z,31.20
2022-09-11T16:14:06.038Z,30.40
2022-09-11T16:16:50.247Z,29.70
2022-09-11T16:19:35.370Z,29.90
2022-09-11T16:22:32.618Z,29.90
2022-09-11T16:26:04.491Z,30.10
2022-09-11T16:32:38.411Z,30.20
2022-09-11T16:35:41.244Z,29.80
2022-09-11T16:38:24.081Z,28.70
2022-09-11T16:41:03.592Z,28.50
2022-09-11T16:43:33.679Z,29.10
2022-09-11T16:46:03.195Z,28.70
2022-09-11T16:48:40.242Z,27.90
2022-09-11T16:51:12.151Z,27.70
2022-09-11T16:53:45.466Z,27.10
2022-09-11T16:57:05.085Z,26.70
2022-09-11T17:04:33.826Z,27.40
2022-09-11T17:11:19.093Z,26.10
2022-09-11T17:14:11.576Z,25.90
2022-09-11T17:16:52.682Z,25.50
2022-09-11T17:19:36.998Z,25.60
2022-09-11T17:22:26.080Z,25.40
2022-09-11T17:25:04.241Z,24.80
2022-09-11T17:27:42.004Z,24.10
2022-09-11T17:30:31.299Z,23.50
2022-09-11T17:33:12.876Z,23.10
2022-09-11T17:35:55.184Z,22.90
2022-09-11T17:38:33.961Z,22.70
2022-09-11T17:41:43.237Z,22.30
2022-09-11T17:44:19.508Z,22.00
2022-09-11T17:47:03.940Z,21.70
2022-09-11T17:50:09.309Z,21.50
2022-09-11T17:53:18.752Z,21.20
2022-09-11T17:56:00.324Z,21.10
2022-09-11T17:58:46.874Z,21.10
2022-09-11T18:01:58.483Z,20.60
2022-09-11T18:04:51.922Z,20.00
2022-09-11T18:07:43.416Z,19.60
2022-09-11T18:10:56.208Z,19.50
2022-09-11T18:13:33.370Z,19.00
2022-09-11T18:16:30.316Z,18.70
2022-09-11T18:22:23.679Z,18.10
2022-09-11T18:40:36.998Z,17.20
2022-09-11T18:53:10.854Z,16.70
2022-09-11T18:59:15.713Z,16.50
2022-09-11T19:05:46.762Z,16.10
2022-09-11T19:08:45.382Z,16.10
2022-09-11T19:11:50.219Z,16.30
2022-09-11T19:23:34.363Z,16.00
2022-09-11T19:26:43.652Z,15.90
2022-09-11T19:29:39.916Z,15.90
2022-09-11T19:32:09.387Z,15.50
2022-09-11T19:34:47.058Z,15.40
2022-09-11T19:37:19.285Z,15.40
2022-09-11T19:39:52.193Z,15.20
2022-09-11T19:42:21.641Z,15.30
2022-09-11T19:44:56.151Z,15.20
2022-09-11T19:47:27.449Z,15.10
2022-09-11T19:49:57.226Z,14.90
2022-09-11T19:52:32.740Z,14.60
2022-09-11T19:55:04.215Z,14.50
2022-09-11T19:57:33.337Z,14.40
2022-09-11T20:00:02.517Z,14.40
2022-09-11T20:02:33.739Z,14.40
2022-09-11T20:05:04.214Z,14.40
2022-09-11T20:07:33.101Z,14.20
2022-09-11T20:10:03.437Z,14.40
2022-09-11T20:12:46.965Z,14.70
2022-09-11T20:15:34.711Z,14.50
2022-09-11T20:18:46.279Z,14.50
2022-09-11T20:21:19.753Z,14.40
2022-09-11T20:24:02.312Z,14.40
2022-09-11T20:27:01.428Z,14.10
2022-09-11T20:33:17.660Z,13.80
2022-09-11T20:36:25.550Z,13.70
2022-09-11T20:39:07.266Z,13.60
2022-09-11T20:41:43.883Z,13.70
2022-09-11T20:44:22.659Z,13.70
2022-09-11T20:47:05.809Z,13.80
2022-09-11T20:49:38.680Z,13.60
2022-09-11T20:52:13.005Z,13.90
2022-09-11T20:54:50.379Z,14.10
2022-09-11T20:57:20.052Z,13.90
2022-09-11T21:00:04.741Z,13.70
2022-09-11T21:02:36.028Z,13.60
2022-09-11T21:05:05.590Z,13.60
2022-09-11T21:07:34.695Z,13.50
2022-09-11T21:10:04.597Z,13.40
2022-09-11T21:12:34.563Z,13.30
2022-09-11T21:15:12.814Z,13.20
2022-09-11T21:17:51.045Z,13.10
2022-09-11T21:20:26.999Z,13.00
2022-09-11T21:23:00.396Z,13.00
2022-09-11T21:25:30.210Z,13.00
2022-09-11T21:28:03.930Z,13.10
2022-09-11T21:30:45.773Z,13.00
2022-09-11T21:33:19.567Z,12.90
2022-09-11T21:35:58.812Z,13.00
2022-09-11T21:38:30.983Z,12.90
2022-09-11T21:41:04.185Z,13.20
2022-09-11T21:43:34.321Z,13.40
2022-09-11T21:46:05.878Z,13.20
2022-09-11T21:48:35.965Z,13.00
2022-09-11T21:51:10.362Z,12.80
2022-09-11T21:53:44.838Z,12.70
2022-09-11T21:56:20.261Z,12.70
2022-09-11T21:58:53.883Z,12.60
2022-09-11T22:01:27.399Z,12.60
2022-09-11T22:03:56.882Z,12.50
2022-09-11T22:06:27.313Z,12.50
2022-09-11T22:08:56.620Z,12.70
2022-09-11T22:11:26.654Z,12.60
2022-09-11T22:13:56.113Z,12.50
2022-09-11T22:16:26.983Z,12.40
2022-09-11T22:18:57.071Z,12.50
2022-09-11T22:21:26.243Z,12.40
2022-09-11T22:23:55.722Z,12.30
2022-09-11T22:26:25.177Z,12.30
2022-09-11T22:28:56.565Z,12.40
2022-09-11T22:31:28.879Z,12.40
2022-09-11T22:33:58.801Z,12.30
2022-09-11T22:36:29.843Z,12.30
2022-09-11T22:39:00.429Z,12.20
2022-09-11T22:41:30.266Z,12.10
2022-09-11T22:43:59.378Z,12.10
2022-09-11T22:46:30.482Z,12.10
2022-09-11T22:48:59.374Z,12.10
2022-09-11T22:51:28.905Z,12.00
2022-09-11T22:53:58.607Z,12.00
2022-09-11T22:56:27.498Z,11.90
2022-09-11T22:58:56.720Z,11.80
2022-09-11T23:01:28.121Z,11.80
2022-09-11T23:03:58.329Z,11.90
2022-09-11T23:06:44.441Z,11.90
2022-09-11T23:09:17.118Z,11.90
2022-09-11T23:11:46.493Z,11.80
2022-09-11T23:14:16.325Z,11.70
2022-09-11T23:16:45.794Z,11.70
2022-09-11T23:19:16.604Z,11.70
2022-09-11T23:21:46.082Z,11.60
2022-09-11T23:24:16.800Z,11.60
2022-09-11T23:26:46.102Z,11.50
2022-09-11T23:29:15.810Z,11.50
2022-09-11T23:31:45.871Z,11.50
2022-09-11T23:34:18.733Z,11.50
2022-09-11T23:36:48.790Z,11.50
2022-09-11T23:39:17.827Z,11.40
2022-09-11T23:41:47.324Z,11.40
2022-09-11T23:44:17.021Z,11.40
2022-09-11T23:46:46.150Z,11.40
2022-09-11T23:49:17.557Z,11.40
2022-09-11T23:51:50.138Z,11.40
2022-09-11T23:54:21.782Z,11.40
2022-09-11T23:56:56.298Z,11.40
2022-09-11T23:59:30.012Z,11.30
